sensor_id;sensor_type;location;lat;lon;timestamp;temperature;humidity
67358;HTU21D;54240;51.096;5.878;2023-12-04T00:00:38;2.54;-6.00
67358;HTU21D;54240;51.096;5.878;2023-12-04T00:03:04;2.55;-6.00
67358;HTU21D;54240;51.096;5.878;2023-12-04T00:05:30;2.54;-6.00
67358;HTU21D;54240;51.096;5.878;2023-12-04T00:07:55;2.58;-6.00
67358;HTU21D;54240;51.096;5.878;2023-12-04T00:10:21;2.57;-6.00
67358;HTU21D;54240;51.096;5.878;2023-12-04T00:12:47;2.54;-6.00
67358;HTU21D;54240;51.096;5.878;2023-12-04T00:15:13;2.54;-6.00
67358;HTU21D;54240;51.096;5.878;2023-12-04T00:17:38;2.53;-6.00
67358;HTU21D;54240;51.096;5.878;2023-12-04T00:20:07;2.53;-6.00
67358;HTU21D;54240;51.096;5.878;2023-12-04T00:22:33;2.52;-6.00
67358;HTU21D;54240;51.096;5.878;2023-12-04T00:24:59;2.52;-6.00
67358;HTU21D;54240;51.096;5.878;2023-12-04T00:27:25;2.54;-6.00
67358;HTU21D;54240;51.096;5.878;2023-12-04T00:29:53;2.50;-6.00
67358;HTU21D;54240;51.096;5.878;2023-12-04T00:32:18;2.50;-6.00
67358;HTU21D;54240;51.096;5.878;2023-12-04T00:34:44;2.49;-6.00
67358;HTU21D;54240;51.096;5.878;2023-12-04T00:37:10;2.46;-6.00
67358;HTU21D;54240;51.096;5.878;2023-12-04T00:39:36;2.46;-6.00
67358;HTU21D;54240;51.096;5.878;2023-12-04T00:42:02;2.45;-6.00
67358;HTU21D;54240;51.096;5.878;2023-12-04T00:44:28;2.44;-6.00
67358;HTU21D;54240;51.096;5.878;2023-12-04T00:46:54;2.40;-6.00
67358;HTU21D;54240;51.096;5.878;2023-12-04T00:49:20;2.37;-6.00
67358;HTU21D;54240;51.096;5.878;2023-12-04T00:51:46;2.37;-6.00
67358;HTU21D;54240;51.096;5.878;2023-12-04T00:54:11;2.36;-6.00
67358;HTU21D;54240;51.096;5.878;2023-12-04T00:56:40;2.32;-6.00
67358;HTU21D;54240;51.096;5.878;2023-12-04T00:59:08;2.31;-6.00
67358;HTU21D;54240;51.096;5.878;2023-12-04T01:01:36;2.34;-6.00
67358;HTU21D;54240;51.096;5.878;2023-12-04T01:04:02;2.35;-6.00
67358;HTU21D;54240;51.096;5.878;2023-12-04T01:06:28;2.36;-6.00
67358;HTU21D;54240;51.096;5.878;2023-12-04T01:08:55;2.37;-6.00
67358;HTU21D;54240;51.096;5.878;2023-12-04T01:11:22;2.37;-6.00
67358;HTU21D;54240;51.096;5.878;2023-12-04T01:13:49;2.35;-6.00
67358;HTU21D;54240;51.096;5.878;2023-12-04T01:16:15;2.36;-6.00
67358;HTU21D;54240;51.096;5.878;2023-12-04T01:18:43;2.34;-6.00
67358;HTU21D;54240;51.096;5.878;2023-12-04T01:21:09;2.35;-6.00
67358;HTU21D;54240;51.096;5.878;2023-12-04T01:23:35;2.34;-6.00
67358;HTU21D;54240;51.096;5.878;2023-12-04T01:26:02;2.34;-6.00
67358;HTU21D;54240;51.096;5.878;2023-12-04T01:28:28;2.35;-6.00
67358;HTU21D;54240;51.096;5.878;2023-12-04T01:30:54;2.38;-6.00
67358;HTU21D;54240;51.096;5.878;2023-12-04T01:33:19;2.39;-6.00
67358;HTU21D;54240;51.096;5.878;2023-12-04T01:35:45;2.41;-6.00
67358;HTU21D;54240;51.096;5.878;2023-12-04T01:38:11;2.41;-6.00
67358;HTU21D;54240;51.096;5.878;2023-12-04T01:40:37;2.40;-6.00
67358;HTU21D;54240;51.096;5.878;2023-12-04T01:43:03;2.44;-6.00
67358;HTU21D;54240;51.096;5.878;2023-12-04T01:45:28;2.42;-6.00
67358;HTU21D;54240;51.096;5.878;2023-12-04T01:47:54;2.44;-6.00
67358;HTU21D;54240;51.096;5.878;2023-12-04T01:50:21;2.41;-6.00
67358;HTU21D;54240;51.096;5.878;2023-12-04T01:52:47;2.37;-6.00
67358;HTU21D;54240;51.096;5.878;2023-12-04T01:55:15;2.36;-6.00
67358;HTU21D;54240;51.096;5.878;2023-12-04T01:57:41;2.35;-6.00
67358;HTU21D;54240;51.096;5.878;2023-12-04T02:00:08;2.34;-6.00
67358;HTU21D;54240;51.096;5.878;2023-12-04T02:02:41;2.29;-6.00
67358;HTU21D;54240;51.096;5.878;2023-12-04T02:05:11;2.29;-6.00
67358;HTU21D;54240;51.096;5.878;2023-12-04T02:07:37;2.22;-6.00
67358;HTU21D;54240;51.096;5.878;2023-12-04T02:10:03;2.16;-6.00
67358;HTU21D;54240;51.096;5.878;2023-12-04T02:12:30;2.12;-6.00
67358;HTU21D;54240;51.096;5.878;2023-12-04T02:14:57;2.09;-6.00
67358;HTU21D;54240;51.096;5.878;2023-12-04T02:17:23;2.08;-6.00
67358;HTU21D;54240;51.096;5.878;2023-12-04T02:19:50;2.06;-6.00
67358;HTU21D;54240;51.096;5.878;2023-12-04T02:22:16;2.06;-6.00
67358;HTU21D;54240;51.096;5.878;2023-12-04T02:24:45;2.10;-6.00
67358;HTU21D;54240;51.096;5.878;2023-12-04T02:27:22;2.06;-6.00
67358;HTU21D;54240;51.096;5.878;2023-12-04T02:30:14;2.07;-6.00
67358;HTU21D;54240;51.096;5.878;2023-12-04T02:32:45;2.05;-6.00
67358;HTU21D;54240;51.096;5.878;2023-12-04T02:35:14;1.98;-6.00
67358;HTU21D;54240;51.096;5.878;2023-12-04T02:37:42;1.95;-6.00
67358;HTU21D;54240;51.096;5.878;2023-12-04T02:40:10;1.98;-6.00
67358;HTU21D;54240;51.096;5.878;2023-12-04T02:42:36;1.96;-6.00
67358;HTU21D;54240;51.096;5.878;2023-12-04T02:45:03;1.94;-6.00
67358;HTU21D;54240;51.096;5.878;2023-12-04T02:47:29;1.96;-6.00
67358;HTU21D;54240;51.096;5.878;2023-12-04T02:49:54;1.92;-6.00
67358;HTU21D;54240;51.096;5.878;2023-12-04T02:52:20;1.93;-6.00
67358;HTU21D;54240;51.096;5.878;2023-12-04T02:54:46;1.93;-6.00
67358;HTU21D;54240;51.096;5.878;2023-12-04T02:57:12;1.94;-6.00
67358;HTU21D;54240;51.096;5.878;2023-12-04T02:59:37;1.91;-6.00
67358;HTU21D;54240;51.096;5.878;2023-12-04T03:02:03;1.92;-6.00
67358;HTU21D;54240;51.096;5.878;2023-12-04T03:04:30;1.95;-6.00
67358;HTU21D;54240;51.096;5.878;2023-12-04T03:06:56;1.93;-6.00
67358;HTU21D;54240;51.096;5.878;2023-12-04T03:09:22;1.90;-6.00
67358;HTU21D;54240;51.096;5.878;2023-12-04T03:11:48;1.92;-6.00
67358;HTU21D;54240;51.096;5.878;2023-12-04T03:14:14;1.91;-6.00
67358;HTU21D;54240;51.096;5.878;2023-12-04T03:16:40;1.90;-6.00
67358;HTU21D;54240;51.096;5.878;2023-12-04T03:19:06;1.88;-6.00
67358;HTU21D;54240;51.096;5.878;2023-12-04T03:21:32;1.86;-6.00
67358;HTU21D;54240;51.096;5.878;2023-12-04T03:23:58;1.86;-6.00
67358;HTU21D;54240;51.096;5.878;2023-12-04T03:26:24;1.86;-6.00
67358;HTU21D;54240;51.096;5.878;2023-12-04T03:28:49;1.86;-6.00
67358;HTU21D;54240;51.096;5.878;2023-12-04T03:31:15;1.87;-6.00
67358;HTU21D;54240;51.096;5.878;2023-12-04T03:33:41;1.90;-6.00
67358;HTU21D;54240;51.096;5.878;2023-12-04T03:36:07;1.91;-6.00
67358;HTU21D;54240;51.096;5.878;2023-12-04T03:38:33;1.88;-6.00
67358;HTU21D;54240;51.096;5.878;2023-12-04T03:40:59;1.88;-6.00
67358;HTU21D;54240;51.096;5.878;2023-12-04T03:43:25;1.88;-6.00
67358;HTU21D;54240;51.096;5.878;2023-12-04T03:45:51;1.84;-6.00
67358;HTU21D;54240;51.096;5.878;2023-12-04T03:48:17;1.86;-6.00
67358;HTU21D;54240;51.096;5.878;2023-12-04T03:50:43;1.86;-6.00
67358;HTU21D;54240;51.096;5.878;2023-12-04T03:53:08;1.84;-6.00
67358;HTU21D;54240;51.096;5.878;2023-12-04T03:55:34;1.84;-6.00
67358;HTU21D;54240;51.096;5.878;2023-12-04T03:58:00;1.84;-6.00
67358;HTU21D;54240;51.096;5.878;2023-12-04T04:00:26;1.87;-6.00
67358;HTU21D;54240;51.096;5.878;2023-12-04T04:02:52;1.91;-6.00
67358;HTU21D;54240;51.096;5.878;2023-12-04T04:05:17;1.86;-6.00
67358;HTU21D;54240;51.096;5.878;2023-12-04T04:07:43;1.87;-6.00
67358;HTU21D;54240;51.096;5.878;2023-12-04T04:10:09;1.86;-6.00
67358;HTU21D;54240;51.096;5.878;2023-12-04T04:12:35;1.84;-6.00
67358;HTU21D;54240;51.096;5.878;2023-12-04T04:15:01;1.87;-6.00
67358;HTU21D;54240;51.096;5.878;2023-12-04T04:17:27;1.90;-6.00
67358;HTU21D;54240;51.096;5.878;2023-12-04T04:19:53;1.90;-6.00
67358;HTU21D;54240;51.096;5.878;2023-12-04T04:22:20;1.90;-6.00
67358;HTU21D;54240;51.096;5.878;2023-12-04T04:24:47;1.93;-6.00
67358;HTU21D;54240;51.096;5.878;2023-12-04T04:27:13;1.93;-6.00
67358;HTU21D;54240;51.096;5.878;2023-12-04T04:29:39;1.94;-6.00
67358;HTU21D;54240;51.096;5.878;2023-12-04T04:32:05;1.94;-6.00
67358;HTU21D;54240;51.096;5.878;2023-12-04T04:34:31;1.94;-6.00
67358;HTU21D;54240;51.096;5.878;2023-12-04T04:36:57;1.91;-6.00
67358;HTU21D;54240;51.096;5.878;2023-12-04T04:39:23;1.95;-6.00
67358;HTU21D;54240;51.096;5.878;2023-12-04T04:41:49;1.96;-6.00
67358;HTU21D;54240;51.096;5.878;2023-12-04T04:44:15;1.96;-6.00
67358;HTU21D;54240;51.096;5.878;2023-12-04T04:46:40;1.94;-6.00
67358;HTU21D;54240;51.096;5.878;2023-12-04T04:49:06;1.97;-6.00
67358;HTU21D;54240;51.096;5.878;2023-12-04T04:51:33;1.96;-6.00
67358;HTU21D;54240;51.096;5.878;2023-12-04T04:54:03;1.96;-6.00
67358;HTU21D;54240;51.096;5.878;2023-12-04T04:56:29;1.99;-6.00
67358;HTU21D;54240;51.096;5.878;2023-12-04T04:58:55;1.96;-6.00
67358;HTU21D;54240;51.096;5.878;2023-12-04T05:01:21;1.99;-6.00
67358;HTU21D;54240;51.096;5.878;2023-12-04T05:03:47;1.99;-6.00
67358;HTU21D;54240;51.096;5.878;2023-12-04T05:06:14;2.01;-6.00
67358;HTU21D;54240;51.096;5.878;2023-12-04T05:08:40;2.01;-6.00
67358;HTU21D;54240;51.096;5.878;2023-12-04T05:11:06;2.05;-6.00
67358;HTU21D;54240;51.096;5.878;2023-12-04T05:13:32;2.03;-6.00
67358;HTU21D;54240;51.096;5.878;2023-12-04T05:15:57;2.06;-6.00
67358;HTU21D;54240;51.096;5.878;2023-12-04T05:18:23;2.08;-6.00
67358;HTU21D;54240;51.096;5.878;2023-12-04T05:20:49;2.09;-6.00
67358;HTU21D;54240;51.096;5.878;2023-12-04T05:23:15;2.15;-6.00
67358;HTU21D;54240;51.096;5.878;2023-12-04T05:25:40;2.15;-6.00
67358;HTU21D;54240;51.096;5.878;2023-12-04T05:28:06;2.20;-6.00
67358;HTU21D;54240;51.096;5.878;2023-12-04T05:30:32;2.23;-6.00
67358;HTU21D;54240;51.096;5.878;2023-12-04T05:32:58;2.16;-6.00
67358;HTU21D;54240;51.096;5.878;2023-12-04T05:35:24;2.21;-6.00
67358;HTU21D;54240;51.096;5.878;2023-12-04T05:37:49;2.22;-6.00
67358;HTU21D;54240;51.096;5.878;2023-12-04T05:40:15;2.22;-6.00
67358;HTU21D;54240;51.096;5.878;2023-12-04T05:42:41;2.22;-6.00
67358;HTU21D;54240;51.096;5.878;2023-12-04T05:45:07;2.27;-6.00
67358;HTU21D;54240;51.096;5.878;2023-12-04T05:47:34;2.29;-6.00
67358;HTU21D;54240;51.096;5.878;2023-12-04T05:50:00;2.21;-6.00
67358;HTU21D;54240;51.096;5.878;2023-12-04T05:52:26;2.29;-6.00
67358;HTU21D;54240;51.096;5.878;2023-12-04T05:54:52;2.28;-6.00
67358;HTU21D;54240;51.096;5.878;2023-12-04T05:57:18;2.24;-6.00
67358;HTU21D;54240;51.096;5.878;2023-12-04T05:59:44;2.22;-6.00
67358;HTU21D;54240;51.096;5.878;2023-12-04T06:02:09;2.26;-6.00
67358;HTU21D;54240;51.096;5.878;2023-12-04T06:04:35;2.27;-6.00
67358;HTU21D;54240;51.096;5.878;2023-12-04T06:07:01;2.35;-6.00
67358;HTU21D;54240;51.096;5.878;2023-12-04T06:09:27;2.31;-6.00
67358;HTU21D;54240;51.096;5.878;2023-12-04T06:11:53;2.35;-6.00
67358;HTU21D;54240;51.096;5.878;2023-12-04T06:14:18;2.28;-6.00
67358;HTU21D;54240;51.096;5.878;2023-12-04T06:16:44;2.25;-6.00
67358;HTU21D;54240;51.096;5.878;2023-12-04T06:19:10;2.25;-6.00
67358;HTU21D;54240;51.096;5.878;2023-12-04T06:21:36;2.23;-6.00
67358;HTU21D;54240;51.096;5.878;2023-12-04T06:24:02;2.24;-6.00
67358;HTU21D;54240;51.096;5.878;2023-12-04T06:26:29;2.19;-6.00
67358;HTU21D;54240;51.096;5.878;2023-12-04T06:28:57;2.19;-6.00
67358;HTU21D;54240;51.096;5.878;2023-12-04T06:31:23;2.12;-6.00
67358;HTU21D;54240;51.096;5.878;2023-12-04T06:33:49;2.08;-6.00
67358;HTU21D;54240;51.096;5.878;2023-12-04T06:36:17;2.14;-6.00
67358;HTU21D;54240;51.096;5.878;2023-12-04T06:38:47;2.15;-6.00
67358;HTU21D;54240;51.096;5.878;2023-12-04T06:41:16;2.14;-6.00
67358;HTU21D;54240;51.096;5.878;2023-12-04T06:43:43;2.14;-6.00
67358;HTU21D;54240;51.096;5.878;2023-12-04T06:46:13;2.16;-6.00
67358;HTU21D;54240;51.096;5.878;2023-12-04T06:48:42;2.14;-6.00
67358;HTU21D;54240;51.096;5.878;2023-12-04T06:51:08;2.17;-6.00
67358;HTU21D;54240;51.096;5.878;2023-12-04T06:53:34;2.14;-6.00
67358;HTU21D;54240;51.096;5.878;2023-12-04T06:56:00;2.12;-6.00
67358;HTU21D;54240;51.096;5.878;2023-12-04T06:58:26;2.11;-6.00
67358;HTU21D;54240;51.096;5.878;2023-12-04T07:00:51;2.03;-6.00
67358;HTU21D;54240;51.096;5.878;2023-12-04T07:03:18;2.02;-6.00
67358;HTU21D;54240;51.096;5.878;2023-12-04T07:05:44;1.86;-6.00
67358;HTU21D;54240;51.096;5.878;2023-12-04T07:08:10;1.92;-6.00
67358;HTU21D;54240;51.096;5.878;2023-12-04T07:10:36;2.07;-6.00
67358;HTU21D;54240;51.096;5.878;2023-12-04T07:13:02;2.11;-6.00
67358;HTU21D;54240;51.096;5.878;2023-12-04T07:15:28;2.12;-6.00
67358;HTU21D;54240;51.096;5.878;2023-12-04T07:17:54;2.16;-6.00
67358;HTU21D;54240;51.096;5.878;2023-12-04T07:20:20;2.22;-6.00
67358;HTU21D;54240;51.096;5.878;2023-12-04T07:22:45;2.23;-6.00
67358;HTU21D;54240;51.096;5.878;2023-12-04T07:25:12;2.25;-6.00
67358;HTU21D;54240;51.096;5.878;2023-12-04T07:27:37;2.26;-6.00
67358;HTU21D;54240;51.096;5.878;2023-12-04T07:30:04;2.27;-6.00
67358;HTU21D;54240;51.096;5.878;2023-12-04T07:32:30;2.29;-6.00
67358;HTU21D;54240;51.096;5.878;2023-12-04T07:34:58;2.40;-6.00
67358;HTU21D;54240;51.096;5.878;2023-12-04T07:37:24;2.44;-6.00
67358;HTU21D;54240;51.096;5.878;2023-12-04T07:39:50;2.45;-6.00
67358;HTU21D;54240;51.096;5.878;2023-12-04T07:42:16;2.51;-6.00
67358;HTU21D;54240;51.096;5.878;2023-12-04T07:44:41;2.45;-6.00
67358;HTU21D;54240;51.096;5.878;2023-12-04T07:47:07;2.56;-6.00
67358;HTU21D;54240;51.096;5.878;2023-12-04T07:49:33;2.65;-6.00
67358;HTU21D;54240;51.096;5.878;2023-12-04T07:51:59;2.69;-6.00
67358;HTU21D;54240;51.096;5.878;2023-12-04T07:54:25;2.70;-6.00
67358;HTU21D;54240;51.096;5.878;2023-12-04T07:56:52;2.78;-6.00
67358;HTU21D;54240;51.096;5.878;2023-12-04T07:59:18;2.79;-6.00
67358;HTU21D;54240;51.096;5.878;2023-12-04T08:01:45;2.81;-6.00
67358;HTU21D;54240;51.096;5.878;2023-12-04T08:04:11;2.81;-6.00
67358;HTU21D;54240;51.096;5.878;2023-12-04T08:06:36;2.85;-6.00
67358;HTU21D;54240;51.096;5.878;2023-12-04T08:09:02;2.88;-6.00
67358;HTU21D;54240;51.096;5.878;2023-12-04T08:11:31;2.81;-6.00
67358;HTU21D;54240;51.096;5.878;2023-12-04T08:13:57;2.83;-6.00
67358;HTU21D;54240;51.096;5.878;2023-12-04T08:16:23;2.83;-6.00
67358;HTU21D;54240;51.096;5.878;2023-12-04T08:18:48;2.82;-6.00
67358;HTU21D;54240;51.096;5.878;2023-12-04T08:21:14;2.83;-6.00
67358;HTU21D;54240;51.096;5.878;2023-12-04T08:23:40;2.73;-6.00
67358;HTU21D;54240;51.096;5.878;2023-12-04T08:26:06;2.84;-6.00
67358;HTU21D;54240;51.096;5.878;2023-12-04T08:28:33;2.86;-6.00
67358;HTU21D;54240;51.096;5.878;2023-12-04T08:30:59;2.80;-6.00
67358;HTU21D;54240;51.096;5.878;2023-12-04T08:33:25;2.83;-6.00
67358;HTU21D;54240;51.096;5.878;2023-12-04T08:35:51;2.87;-6.00
67358;HTU21D;54240;51.096;5.878;2023-12-04T08:38:17;2.83;-6.00
67358;HTU21D;54240;51.096;5.878;2023-12-04T08:40:42;2.81;-6.00
67358;HTU21D;54240;51.096;5.878;2023-12-04T08:43:09;2.87;-6.00
67358;HTU21D;54240;51.096;5.878;2023-12-04T08:45:35;2.91;-6.00
67358;HTU21D;54240;51.096;5.878;2023-12-04T08:48:00;2.95;-6.00
67358;HTU21D;54240;51.096;5.878;2023-12-04T08:50:26;2.91;-6.00
67358;HTU21D;54240;51.096;5.878;2023-12-04T08:52:52;2.88;-6.00
67358;HTU21D;54240;51.096;5.878;2023-12-04T08:55:18;2.88;-6.00
67358;HTU21D;54240;51.096;5.878;2023-12-04T08:57:44;2.88;-6.00
67358;HTU21D;54240;51.096;5.878;2023-12-04T09:00:10;2.96;-6.00
67358;HTU21D;54240;51.096;5.878;2023-12-04T09:02:36;2.99;-6.00
67358;HTU21D;54240;51.096;5.878;2023-12-04T09:05:02;3.01;-6.00
67358;HTU21D;54240;51.096;5.878;2023-12-04T09:07:29;3.04;-6.00
67358;HTU21D;54240;51.096;5.878;2023-12-04T09:09:55;3.04;-6.00
67358;HTU21D;54240;51.096;5.878;2023-12-04T09:12:21;3.04;-6.00
67358;HTU21D;54240;51.096;5.878;2023-12-04T09:14:47;3.04;-6.00
67358;HTU21D;54240;51.096;5.878;2023-12-04T09:17:13;3.09;-6.00
67358;HTU21D;54240;51.096;5.878;2023-12-04T09:19:39;3.06;-6.00
67358;HTU21D;54240;51.096;5.878;2023-12-04T09:22:05;3.05;-6.00
67358;HTU21D;54240;51.096;5.878;2023-12-04T09:24:31;3.11;-6.00
67358;HTU21D;54240;51.096;5.878;2023-12-04T09:26:57;3.08;-6.00
67358;HTU21D;54240;51.096;5.878;2023-12-04T09:29:22;3.08;-6.00
67358;HTU21D;54240;51.096;5.878;2023-12-04T09:31:51;3.06;-6.00
67358;HTU21D;54240;51.096;5.878;2023-12-04T09:34:17;3.13;-6.00
67358;HTU21D;54240;51.096;5.878;2023-12-04T09:36:44;3.11;-6.00
67358;HTU21D;54240;51.096;5.878;2023-12-04T09:39:10;3.19;-6.00
67358;HTU21D;54240;51.096;5.878;2023-12-04T09:41:37;3.23;-6.00
67358;HTU21D;54240;51.096;5.878;2023-12-04T09:44:04;3.28;-6.00
67358;HTU21D;54240;51.096;5.878;2023-12-04T09:46:31;3.31;-6.00
67358;HTU21D;54240;51.096;5.878;2023-12-04T09:48:58;3.30;-6.00
67358;HTU21D;54240;51.096;5.878;2023-12-04T09:51:24;3.32;-6.00
67358;HTU21D;54240;51.096;5.878;2023-12-04T09:53:52;3.35;-6.00
67358;HTU21D;54240;51.096;5.878;2023-12-04T09:56:20;3.30;-6.00
67358;HTU21D;54240;51.096;5.878;2023-12-04T09:58:52;3.33;-6.00
67358;HTU21D;54240;51.096;5.878;2023-12-04T10:01:19;3.35;-6.00
67358;HTU21D;54240;51.096;5.878;2023-12-04T10:03:46;3.38;-6.00
67358;HTU21D;54240;51.096;5.878;2023-12-04T10:06:15;3.48;-6.00
67358;HTU21D;54240;51.096;5.878;2023-12-04T10:08:45;3.56;-6.00
67358;HTU21D;54240;51.096;5.878;2023-12-04T10:11:13;3.68;-6.00
67358;HTU21D;54240;51.096;5.878;2023-12-04T10:13:40;3.68;-6.00
67358;HTU21D;54240;51.096;5.878;2023-12-04T10:16:06;3.79;-6.00
67358;HTU21D;54240;51.096;5.878;2023-12-04T10:18:32;3.82;-6.00
67358;HTU21D;54240;51.096;5.878;2023-12-04T10:20:59;3.82;-6.00
67358;HTU21D;54240;51.096;5.878;2023-12-04T10:26:03;3.97;-6.00
67358;HTU21D;54240;51.096;5.878;2023-12-04T10:28:30;4.10;-6.00
67358;HTU21D;54240;51.096;5.878;2023-12-04T10:30:56;4.18;-6.00
67358;HTU21D;54240;51.096;5.878;2023-12-04T10:33:25;4.13;-6.00
67358;HTU21D;54240;51.096;5.878;2023-12-04T10:35:54;4.16;-6.00
67358;HTU21D;54240;51.096;5.878;2023-12-04T10:38:21;4.17;-6.00
67358;HTU21D;54240;51.096;5.878;2023-12-04T10:40:47;4.21;-6.00
67358;HTU21D;54240;51.096;5.878;2023-12-04T10:43:20;4.23;-6.00
67358;HTU21D;54240;51.096;5.878;2023-12-04T10:45:48;4.26;-6.00
67358;HTU21D;54240;51.096;5.878;2023-12-04T10:48:16;4.30;-6.00
67358;HTU21D;54240;51.096;5.878;2023-12-04T10:50:44;4.29;-6.00
67358;HTU21D;54240;51.096;5.878;2023-12-04T10:53:12;4.20;-6.00
67358;HTU21D;54240;51.096;5.878;2023-12-04T10:55:40;4.23;-6.00
67358;HTU21D;54240;51.096;5.878;2023-12-04T10:58:13;4.20;-6.00
67358;HTU21D;54240;51.096;5.878;2023-12-04T11:00:50;4.13;-6.00
67358;HTU21D;54240;51.096;5.878;2023-12-04T11:03:43;4.02;-6.00
67358;HTU21D;54240;51.096;5.878;2023-12-04T11:06:11;3.77;-6.00
67358;HTU21D;54240;51.096;5.878;2023-12-04T11:08:41;3.70;-6.00
67358;HTU21D;54240;51.096;5.878;2023-12-04T11:11:35;3.61;-6.00
67358;HTU21D;54240;51.096;5.878;2023-12-04T11:14:04;3.58;-6.00
67358;HTU21D;54240;51.096;5.878;2023-12-04T11:16:40;3.56;-6.00
67358;HTU21D;54240;51.096;5.878;2023-12-04T11:21:46;3.50;-6.00
67358;HTU21D;54240;51.096;5.878;2023-12-04T11:24:12;3.54;-6.00
67358;HTU21D;54240;51.096;5.878;2023-12-04T11:26:40;3.57;-6.00
67358;HTU21D;54240;51.096;5.878;2023-12-04T11:29:09;3.60;-6.00
67358;HTU21D;54240;51.096;5.878;2023-12-04T11:31:36;3.57;-6.00
67358;HTU21D;54240;51.096;5.878;2023-12-04T11:34:02;3.54;-6.00
67358;HTU21D;54240;51.096;5.878;2023-12-04T11:36:29;3.54;-6.00
67358;HTU21D;54240;51.096;5.878;2023-12-04T11:38:56;3.53;-6.00
67358;HTU21D;54240;51.096;5.878;2023-12-04T11:41:25;3.42;-6.00
67358;HTU21D;54240;51.096;5.878;2023-12-04T11:43:52;3.44;-6.00
67358;HTU21D;54240;51.096;5.878;2023-12-04T11:46:22;3.41;-6.00
67358;HTU21D;54240;51.096;5.878;2023-12-04T11:48:50;3.49;-6.00
67358;HTU21D;54240;51.096;5.878;2023-12-04T11:54:15;3.47;-6.00
67358;HTU21D;54240;51.096;5.878;2023-12-04T11:59:25;3.44;-6.00
67358;HTU21D;54240;51.096;5.878;2023-12-04T12:01:55;3.54;-6.00
67358;HTU21D;54240;51.096;5.878;2023-12-04T12:04:23;3.59;-6.00
67358;HTU21D;54240;51.096;5.878;2023-12-04T12:06:49;3.60;-6.00
67358;HTU21D;54240;51.096;5.878;2023-12-04T12:09:16;3.58;-6.00
67358;HTU21D;54240;51.096;5.878;2023-12-04T12:11:42;3.57;-6.00
67358;HTU21D;54240;51.096;5.878;2023-12-04T12:14:07;3.54;-6.00
67358;HTU21D;54240;51.096;5.878;2023-12-04T12:16:34;3.61;-6.00
67358;HTU21D;54240;51.096;5.878;2023-12-04T12:19:01;3.55;-6.00
67358;HTU21D;54240;51.096;5.878;2023-12-04T12:21:28;3.63;-6.00
67358;HTU21D;54240;51.096;5.878;2023-12-04T12:23:54;3.73;-6.00
67358;HTU21D;54240;51.096;5.878;2023-12-04T12:26:20;3.78;-6.00
67358;HTU21D;54240;51.096;5.878;2023-12-04T12:28:46;3.82;-6.00
67358;HTU21D;54240;51.096;5.878;2023-12-04T12:31:12;3.87;-6.00
67358;HTU21D;54240;51.096;5.878;2023-12-04T12:33:38;3.90;-6.00
67358;HTU21D;54240;51.096;5.878;2023-12-04T12:36:04;3.93;-6.00
67358;HTU21D;54240;51.096;5.878;2023-12-04T12:38:30;3.83;-6.00
67358;HTU21D;54240;51.096;5.878;2023-12-04T12:41:07;3.82;-6.00
67358;HTU21D;54240;51.096;5.878;2023-12-04T12:43:37;3.80;-6.00
67358;HTU21D;54240;51.096;5.878;2023-12-04T12:46:04;3.84;-6.00
67358;HTU21D;54240;51.096;5.878;2023-12-04T12:48:32;3.75;-6.00
67358;HTU21D;54240;51.096;5.878;2023-12-04T12:50:58;3.84;-6.00
67358;HTU21D;54240;51.096;5.878;2023-12-04T12:53:24;3.83;-6.00
67358;HTU21D;54240;51.096;5.878;2023-12-04T12:55:50;3.82;-6.00
67358;HTU21D;54240;51.096;5.878;2023-12-04T12:58:16;3.94;-6.00
67358;HTU21D;54240;51.096;5.878;2023-12-04T13:00:47;4.02;-6.00
67358;HTU21D;54240;51.096;5.878;2023-12-04T13:03:16;3.84;-6.00
67358;HTU21D;54240;51.096;5.878;2023-12-04T13:05:42;3.89;-6.00
67358;HTU21D;54240;51.096;5.878;2023-12-04T13:08:08;4.00;-6.00
67358;HTU21D;54240;51.096;5.878;2023-12-04T13:10:34;3.95;-6.00
67358;HTU21D;54240;51.096;5.878;2023-12-04T13:13:00;4.16;-6.00
67358;HTU21D;54240;51.096;5.878;2023-12-04T13:15:26;3.91;-6.00
67358;HTU21D;54240;51.096;5.878;2023-12-04T13:17:52;4.13;-6.00
67358;HTU21D;54240;51.096;5.878;2023-12-04T13:20:17;4.14;-6.00
67358;HTU21D;54240;51.096;5.878;2023-12-04T13:22:44;4.18;-6.00
67358;HTU21D;54240;51.096;5.878;2023-12-04T13:25:10;4.08;-6.00
67358;HTU21D;54240;51.096;5.878;2023-12-04T13:27:39;3.95;-6.00
67358;HTU21D;54240;51.096;5.878;2023-12-04T13:30:06;3.94;-6.00
67358;HTU21D;54240;51.096;5.878;2023-12-04T13:32:35;3.89;-6.00
67358;HTU21D;54240;51.096;5.878;2023-12-04T13:35:02;4.09;-6.00
67358;HTU21D;54240;51.096;5.878;2023-12-04T13:37:27;4.03;-6.00
67358;HTU21D;54240;51.096;5.878;2023-12-04T13:39:54;4.03;-6.00
67358;HTU21D;54240;51.096;5.878;2023-12-04T13:42:26;4.04;-6.00
67358;HTU21D;54240;51.096;5.878;2023-12-04T13:45:11;3.94;-6.00
67358;HTU21D;54240;51.096;5.878;2023-12-04T13:47:38;3.94;-6.00
67358;HTU21D;54240;51.096;5.878;2023-12-04T13:50:08;3.91;-6.00
67358;HTU21D;54240;51.096;5.878;2023-12-04T13:52:37;3.99;-6.00
67358;HTU21D;54240;51.096;5.878;2023-12-04T13:55:05;3.74;-6.00
67358;HTU21D;54240;51.096;5.878;2023-12-04T13:57:45;3.57;-6.00
67358;HTU21D;54240;51.096;5.878;2023-12-04T14:00:41;3.60;-6.00
67358;HTU21D;54240;51.096;5.878;2023-12-04T14:03:07;3.73;-6.00
67358;HTU21D;54240;51.096;5.878;2023-12-04T14:05:33;3.74;-6.00
67358;HTU21D;54240;51.096;5.878;2023-12-04T14:08:00;3.68;-6.00
67358;HTU21D;54240;51.096;5.878;2023-12-04T14:10:27;3.69;-6.00
67358;HTU21D;54240;51.096;5.878;2023-12-04T14:12:54;3.48;-6.00
67358;HTU21D;54240;51.096;5.878;2023-12-04T14:15:20;3.54;-6.00
67358;HTU21D;54240;51.096;5.878;2023-12-04T14:17:46;3.27;-6.00
67358;HTU21D;54240;51.096;5.878;2023-12-04T14:20:12;3.32;-6.00
67358;HTU21D;54240;51.096;5.878;2023-12-04T14:22:45;3.25;-6.00
67358;HTU21D;54240;51.096;5.878;2023-12-04T14:25:11;3.40;-6.00
67358;HTU21D;54240;51.096;5.878;2023-12-04T14:27:37;3.39;-6.00
67358;HTU21D;54240;51.096;5.878;2023-12-04T14:30:08;3.24;-6.00
67358;HTU21D;54240;51.096;5.878;2023-12-04T14:32:35;3.17;-6.00
67358;HTU21D;54240;51.096;5.878;2023-12-04T14:35:02;3.17;-6.00
67358;HTU21D;54240;51.096;5.878;2023-12-04T14:37:28;3.11;-6.00
67358;HTU21D;54240;51.096;5.878;2023-12-04T14:39:54;2.96;-6.00
67358;HTU21D;54240;51.096;5.878;2023-12-04T14:42:20;2.86;-6.00
67358;HTU21D;54240;51.096;5.878;2023-12-04T14:44:46;2.85;-6.00
67358;HTU21D;54240;51.096;5.878;2023-12-04T14:47:12;2.82;-6.00
67358;HTU21D;54240;51.096;5.878;2023-12-04T14:49:38;2.99;-6.00
67358;HTU21D;54240;51.096;5.878;2023-12-04T14:52:04;3.08;-6.00
67358;HTU21D;54240;51.096;5.878;2023-12-04T14:54:33;3.10;-6.00
67358;HTU21D;54240;51.096;5.878;2023-12-04T14:57:20;3.11;-6.00
67358;HTU21D;54240;51.096;5.878;2023-12-04T15:00:09;3.11;-6.00
67358;HTU21D;54240;51.096;5.878;2023-12-04T15:02:36;3.05;-6.00
67358;HTU21D;54240;51.096;5.878;2023-12-04T15:05:20;3.03;-6.00
67358;HTU21D;54240;51.096;5.878;2023-12-04T15:07:46;3.04;-6.00
67358;HTU21D;54240;51.096;5.878;2023-12-04T15:10:32;3.01;-6.00
67358;HTU21D;54240;51.096;5.878;2023-12-04T15:13:16;3.08;-6.00
67358;HTU21D;54240;51.096;5.878;2023-12-04T15:16:01;3.02;-6.00
67358;HTU21D;54240;51.096;5.878;2023-12-04T15:18:39;2.90;-6.00
67358;HTU21D;54240;51.096;5.878;2023-12-04T15:21:25;2.99;-6.00
67358;HTU21D;54240;51.096;5.878;2023-12-04T15:23:51;3.00;-6.00
67358;HTU21D;54240;51.096;5.878;2023-12-04T15:26:17;2.99;-6.00
67358;HTU21D;54240;51.096;5.878;2023-12-04T15:28:44;3.01;-6.00
67358;HTU21D;54240;51.096;5.878;2023-12-04T15:31:10;2.79;-6.00
67358;HTU21D;54240;51.096;5.878;2023-12-04T15:33:35;2.69;-6.00
67358;HTU21D;54240;51.096;5.878;2023-12-04T15:36:01;2.76;-6.00
67358;HTU21D;54240;51.096;5.878;2023-12-04T15:38:28;2.73;-6.00
67358;HTU21D;54240;51.096;5.878;2023-12-04T15:40:55;2.79;-6.00